createdAt,value
2023-05-19T00:00:17.718Z,11.44
2023-05-19T00:02:44.819Z,11.47
2023-05-19T00:05:12.095Z,11.41
2023-05-19T00:07:38.883Z,11.91
2023-05-19T00:10:06.661Z,11.36
2023-05-19T00:12:33.525Z,10.91
2023-05-19T00:15:01.894Z,11.27
2023-05-19T00:17:28.519Z,11.22
2023-05-19T00:19:54.995Z,10.96
2023-05-19T00:22:21.467Z,11.27
2023-05-19T00:24:47.918Z,11.84
2023-05-19T00:27:14.380Z,11.15
2023-05-19T00:29:40.847Z,11.25
2023-05-19T00:32:08.797Z,11.36
2023-05-19T00:34:35.239Z,11.27
2023-05-19T00:37:01.648Z,11.37
2023-05-19T00:39:28.144Z,11.25
2023-05-19T00:41:54.715Z,11.03
2023-05-19T00:44:21.186Z,11.54
2023-05-19T00:46:47.666Z,11.47
2023-05-19T00:49:15.437Z,11.70
2023-05-19T00:51:42.112Z,11.74
2023-05-19T00:54:09.041Z,10.98
2023-05-19T00:56:35.585Z,11.23
2023-05-19T00:59:02.964Z,11.47
2023-05-19T01:01:29.507Z,11.04
2023-05-19T01:03:56.990Z,11.41
2023-05-19T01:06:24.913Z,11.35
2023-05-19T01:08:51.657Z,11.13
2023-05-19T01:11:18.118Z,11.01
2023-05-19T01:13:44.650Z,11.06
2023-05-19T01:16:17.086Z,10.96
2023-05-19T01:18:53.882Z,10.72
2023-05-19T01:21:54.565Z,11.24
2023-05-19T01:24:45.147Z,11.86
2023-05-19T01:27:57.355Z,10.77
2023-05-19T01:30:27.292Z,11.56
2023-05-19T01:32:57.574Z,11.43
2023-05-19T01:35:25.667Z,11.34
2023-05-19T01:37:54.918Z,11.40
2023-05-19T01:40:23.524Z,11.08
2023-05-19T01:42:52.314Z,11.19
2023-05-19T01:45:20.180Z,10.83
2023-05-19T01:47:54.403Z,11.13
2023-05-19T01:50:21.795Z,11.24
2023-05-19T01:52:48.345Z,11.47
2023-05-19T01:55:14.802Z,11.11
2023-05-19T01:57:50.380Z,11.11
2023-05-19T02:00:25.851Z,11.44
2023-05-19T02:03:01.818Z,11.79
2023-05-19T02:05:36.151Z,11.75
2023-05-19T02:08:12.848Z,11.85
2023-05-19T02:10:42.023Z,11.82
2023-05-19T02:13:11.072Z,11.29
2023-05-19T02:15:40.707Z,11.77
2023-05-19T02:18:10.191Z,11.04
2023-05-19T02:20:36.781Z,11.13
2023-05-19T02:23:03.199Z,11.54
2023-05-19T02:25:29.734Z,11.65
2023-05-19T02:27:57.343Z,11.84
2023-05-19T02:30:26.049Z,11.54
2023-05-19T02:32:52.572Z,11.26
2023-05-19T02:35:20.591Z,11.33
2023-05-19T02:37:47.070Z,11.44
2023-05-19T02:40:13.570Z,11.27
2023-05-19T02:42:40.019Z,11.34
2023-05-19T02:45:07.567Z,11.48
2023-05-19T02:47:36.773Z,11.30
2023-05-19T02:50:04.419Z,11.37
2023-05-19T02:52:32.210Z,11.39
2023-05-19T02:54:58.728Z,11.25
2023-05-19T02:57:25.237Z,11.47
2023-05-19T02:59:51.671Z,11.43
2023-05-19T03:02:18.356Z,11.46
2023-05-19T03:04:44.852Z,11.24
2023-05-19T03:07:11.549Z,11.17
2023-05-19T03:09:39.788Z,11.44
2023-05-19T03:12:06.719Z,11.29
2023-05-19T03:14:34.548Z,11.22
2023-05-19T03:17:01.183Z,10.80
2023-05-19T03:19:27.747Z,11.08
2023-05-19T03:21:54.354Z,10.92
2023-05-19T03:24:20.864Z,11.01
2023-05-19T03:26:48.633Z,11.00
2023-05-19T03:29:15.119Z,11.03
2023-05-19T03:31:41.617Z,11.14
2023-05-19T03:34:08.355Z,10.84
2023-05-19T03:36:34.826Z,10.93
2023-05-19T03:39:01.309Z,10.86
2023-05-19T03:41:27.698Z,10.91
2023-05-19T03:43:55.447Z,10.85
2023-05-19T03:46:22.271Z,10.85
2023-05-19T03:48:48.790Z,10.80
2023-05-19T03:51:15.247Z,11.02
2023-05-19T03:53:41.713Z,10.87
2023-05-19T03:56:08.406Z,10.85
2023-05-19T03:58:34.906Z,11.23
2023-05-19T04:01:02.922Z,11.06
2023-05-19T04:03:29.399Z,11.20
2023-05-19T04:05:55.937Z,11.10
2023-05-19T04:08:22.440Z,11.19
2023-05-19T04:10:48.951Z,11.00
2023-05-19T04:13:15.471Z,11.00
2023-05-19T04:15:42.012Z,10.87
2023-05-19T04:18:09.882Z,10.93
2023-05-19T04:20:36.353Z,10.75
2023-05-19T04:23:02.983Z,11.11
2023-05-19T04:25:29.462Z,11.15
2023-05-19T04:27:55.889Z,11.04
2023-05-19T04:30:23.683Z,11.53
2023-05-19T04:32:50.547Z,11.27
2023-05-19T04:35:18.501Z,11.00
2023-05-19T04:37:45.122Z,11.12
2023-05-19T04:40:12.586Z,10.99
2023-05-19T04:42:39.006Z,10.91
2023-05-19T04:45:06.508Z,11.17
2023-05-19T04:47:32.988Z,11.11
2023-05-19T04:49:59.405Z,11.10
2023-05-19T04:52:27.314Z,11.10
2023-05-19T04:54:53.689Z,11.11
2023-05-19T04:57:20.104Z,11.22
2023-05-19T04:59:46.573Z,11.46
2023-05-19T05:02:13.061Z,11.62
2023-05-19T05:04:39.665Z,11.39
2023-05-19T05:07:06.099Z,11.86
2023-05-19T05:09:33.871Z,11.02
2023-05-19T05:12:01.456Z,11.74
2023-05-19T05:14:28.681Z,11.78
2023-05-19T05:16:55.611Z,11.30
2023-05-19T05:19:22.596Z,11.21
2023-05-19T05:21:49.744Z,11.90
2023-05-19T05:24:16.942Z,11.73
2023-05-19T05:26:45.327Z,11.95
2023-05-19T05:29:11.908Z,12.09
2023-05-19T05:31:38.321Z,12.04
2023-05-19T05:34:04.777Z,12.80
2023-05-19T05:36:31.326Z,12.68
2023-05-19T05:38:57.759Z,12.74
2023-05-19T05:41:24.144Z,12.53
2023-05-19T05:43:51.871Z,11.67
2023-05-19T05:46:18.330Z,11.83
2023-05-19T05:48:45.367Z,11.36
2023-05-19T05:51:12.373Z,11.55
2023-05-19T05:53:41.895Z,10.98
2023-05-19T05:56:09.742Z,11.38
2023-05-19T05:58:37.423Z,12.08
2023-05-19T06:01:05.383Z,11.54
2023-05-19T06:03:32.368Z,11.14
2023-05-19T06:05:58.919Z,11.83
2023-05-19T06:08:25.480Z,11.47
2023-05-19T06:10:51.879Z,11.51
2023-05-19T06:13:18.301Z,11.62
2023-05-19T06:15:44.776Z,12.41
2023-05-19T06:18:12.574Z,12.34
2023-05-19T06:20:39.033Z,15.61
2023-05-19T06:23:05.506Z,16.14
2023-05-19T06:25:32.133Z,13.27
2023-05-19T06:27:58.760Z,13.30
2023-05-19T06:30:26.854Z,16.28
2023-05-19T06:32:53.372Z,19.20
2023-05-19T06:35:21.282Z,15.82
2023-05-19T06:37:47.743Z,13.86
2023-05-19T06:40:14.297Z,15.01
2023-05-19T06:42:40.837Z,15.10
2023-05-19T06:45:08.709Z,16.58
2023-05-19T06:47:35.258Z,15.85
2023-05-19T06:50:01.971Z,16.41
2023-05-19T06:52:29.753Z,15.32
2023-05-19T06:54:56.194Z,14.72
2023-05-19T06:57:22.700Z,15.04
2023-05-19T06:59:49.122Z,18.79
2023-05-19T07:02:15.573Z,19.07
2023-05-19T07:04:42.211Z,15.50
2023-05-19T07:07:08.614Z,16.88
2023-05-19T07:09:36.312Z,15.67
2023-05-19T07:12:02.813Z,14.64
2023-05-19T07:14:29.274Z,14.64
2023-05-19T07:16:55.751Z,16.31
2023-05-19T07:19:22.455Z,16.21
2023-05-19T07:21:49.559Z,15.51
2023-05-19T07:24:15.972Z,18.62
2023-05-19T07:26:43.728Z,17.54
2023-05-19T07:29:10.122Z,16.52
2023-05-19T07:31:36.598Z,19.26
2023-05-19T07:34:03.526Z,15.74
2023-05-19T07:36:29.981Z,17.88
2023-05-19T07:38:56.519Z,16.25
2023-05-19T07:41:23.000Z,15.59
2023-05-19T07:43:50.722Z,14.76
2023-05-19T07:46:17.412Z,18.01
2023-05-19T07:48:44.223Z,17.10
2023-05-19T07:51:10.879Z,18.26
2023-05-19T07:53:37.294Z,15.78
2023-05-19T07:56:04.402Z,15.33
2023-05-19T07:58:30.841Z,15.47
2023-05-19T08:00:59.255Z,15.08
2023-05-19T08:03:26.529Z,14.94
2023-05-19T08:05:53.117Z,15.29
2023-05-19T08:08:19.538Z,15.31
2023-05-19T08:10:46.601Z,15.72
2023-05-19T08:13:13.089Z,15.45
2023-05-19T08:15:39.651Z,15.05
2023-05-19T08:18:07.638Z,14.63
2023-05-19T08:20:34.282Z,15.06
2023-05-19T08:23:00.897Z,15.66
2023-05-19T08:25:27.322Z,15.76
2023-05-19T08:27:53.768Z,15.33
2023-05-19T08:30:20.654Z,15.44
2023-05-19T08:32:47.239Z,16.52
2023-05-19T08:35:15.105Z,16.84
2023-05-19T08:37:41.598Z,16.36
2023-05-19T08:40:16.015Z,15.54
2023-05-19T08:42:42.452Z,16.61
2023-05-19T08:45:09.912Z,16.99
2023-05-19T08:47:36.455Z,16.49
2023-05-19T08:50:05.907Z,16.04
2023-05-19T08:52:45.997Z,16.43
2023-05-19T08:55:25.308Z,15.90
2023-05-19T08:57:52.433Z,16.57
2023-05-19T09:00:19.608Z,17.31
2023-05-19T09:02:59.705Z,16.51
2023-05-19T09:05:33.249Z,16.34
2023-05-19T09:08:01.320Z,16.88
2023-05-19T09:10:29.107Z,17.25
2023-05-19T09:12:55.976Z,17.69
2023-05-19T09:15:27.611Z,17.62
2023-05-19T09:18:05.845Z,16.66
2023-05-19T09:20:37.026Z,16.62
2023-05-19T09:23:05.555Z,18.51
2023-05-19T09:25:32.142Z,18.79
2023-05-19T09:27:58.670Z,17.48
2023-05-19T09:30:26.356Z,16.96
2023-05-19T09:32:52.877Z,16.48
2023-05-19T09:35:19.569Z,17.13
2023-05-19T09:37:46.277Z,17.73
2023-05-19T09:40:15.671Z,18.31
2023-05-19T09:42:42.314Z,18.47
2023-05-19T09:45:09.443Z,17.10
2023-05-19T09:47:36.906Z,17.44
2023-05-19T09:50:06.164Z,17.57
2023-05-19T09:52:35.373Z,18.80
2023-05-19T09:55:02.282Z,18.14
2023-05-19T09:57:33.878Z,17.24
2023-05-19T10:00:00.941Z,18.44
2023-05-19T10:02:28.509Z,18.40
2023-05-19T10:04:55.373Z,17.83
2023-05-19T10:07:23.051Z,17.50
2023-05-19T10:09:51.072Z,17.72
2023-05-19T10:12:18.079Z,17.13
2023-05-19T10:14:47.551Z,17.50
2023-05-19T10:17:14.843Z,17.30
2023-05-19T10:19:42.902Z,17.68
2023-05-19T10:22:09.311Z,17.40
2023-05-19T10:24:35.740Z,17.45
2023-05-19T10:27:07.414Z,18.86
2023-05-19T10:29:37.650Z,19.32
2023-05-19T10:32:11.276Z,18.95
2023-05-19T10:35:08.960Z,18.44
2023-05-19T10:37:43.936Z,18.54
2023-05-19T10:40:18.514Z,18.89
2023-05-19T10:42:55.591Z,19.27
2023-05-19T10:45:27.118Z,17.56
2023-05-19T10:47:55.601Z,18.33
2023-05-19T10:50:22.059Z,17.39
2023-05-19T10:52:53.546Z,18.42
2023-05-19T10:55:47.593Z,18.64
2023-05-19T10:58:14.051Z,18.27
2023-05-19T11:00:40.470Z,19.25
2023-05-19T11:03:14.290Z,18.33
2023-05-19T11:05:40.951Z,17.96
2023-05-19T11:08:07.380Z,18.33
2023-05-19T11:10:34.226Z,17.53
2023-05-19T11:13:03.952Z,17.56
2023-05-19T11:15:35.116Z,17.86
2023-05-19T11:18:02.523Z,17.60
2023-05-19T11:20:30.198Z,17.36
2023-05-19T11:23:07.715Z,17.48
2023-05-19T11:25:45.241Z,17.56
2023-05-19T11:28:15.030Z,17.98
2023-05-19T11:30:42.280Z,18.04
2023-05-19T11:33:09.005Z,18.20
2023-05-19T11:35:36.513Z,17.79
2023-05-19T11:38:03.667Z,18.09
2023-05-19T11:40:30.764Z,18.73
2023-05-19T11:42:57.858Z,19.40
2023-05-19T11:45:27.187Z,18.43
2023-05-19T11:50:26.587Z,18.10
2023-05-19T11:52:54.154Z,17.85
2023-05-19T11:55:21.176Z,17.31
2023-05-19T11:58:03.022Z,17.83
2023-05-19T12:00:37.815Z,17.95
2023-05-19T12:03:05.367Z,18.09
2023-05-19T12:05:34.985Z,17.94
2023-05-19T12:08:04.134Z,17.90
2023-05-19T12:10:31.486Z,17.76
2023-05-19T12:12:58.897Z,18.21
2023-05-19T12:15:26.527Z,18.47
2023-05-19T12:17:59.147Z,18.17
2023-05-19T12:20:26.892Z,18.62
2023-05-19T12:22:55.200Z,18.24
2023-05-19T12:25:22.384Z,18.03
2023-05-19T12:27:48.825Z,18.97
2023-05-19T12:30:16.660Z,19.25
2023-05-19T12:32:43.435Z,18.87
2023-05-19T12:35:11.604Z,18.91
2023-05-19T12:37:41.671Z,19.14
2023-05-19T12:40:09.594Z,19.08
2023-05-19T12:42:36.174Z,18.97
2023-05-19T12:45:04.626Z,19.11
2023-05-19T12:47:32.538Z,18.97
2023-05-19T12:50:02.243Z,19.44
2023-05-19T12:52:31.096Z,19.89
2023-05-19T12:55:01.174Z,19.88
2023-05-19T12:57:27.973Z,19.41
2023-05-19T13:00:00.452Z,19.26
2023-05-19T13:02:27.313Z,18.52
2023-05-19T13:04:53.765Z,18.23
2023-05-19T13:07:20.272Z,18.71
2023-05-19T13:09:48.017Z,18.42
2023-05-19T13:12:14.412Z,18.59
2023-05-19T13:14:40.821Z,18.20
2023-05-19T13:17:07.313Z,18.35
2023-05-19T13:19:33.756Z,18.54
2023-05-19T13:22:00.214Z,19.03
2023-05-19T13:24:26.694Z,19.57
2023-05-19T13:26:55.870Z,18.66
2023-05-19T13:29:22.634Z,18.26
2023-05-19T13:31:49.224Z,18.31
2023-05-19T13:34:15.632Z,18.29
2023-05-19T13:36:42.046Z,18.44
2023-05-19T13:39:08.457Z,19.21
2023-05-19T13:41:34.858Z,18.61
2023-05-19T13:44:02.622Z,18.81
2023-05-19T13:46:43.503Z,18.84
2023-05-19T13:49:15.465Z,19.41
2023-05-19T13:51:43.342Z,19.33
2023-05-19T13:54:09.766Z,18.72
2023-05-19T13:56:36.320Z,18.88
2023-05-19T13:59:04.320Z,18.91
2023-05-19T14:01:30.802Z,18.72
2023-05-19T14:03:57.483Z,18.46
2023-05-19T14:06:24.237Z,18.10
2023-05-19T14:08:50.640Z,18.36
2023-05-19T14:11:20.894Z,18.51
2023-05-19T14:13:50.046Z,18.97
2023-05-19T14:16:19.728Z,19.24
2023-05-19T14:18:46.161Z,19.79
2023-05-19T14:21:12.658Z,20.21
2023-05-19T14:23:39.080Z,20.04
2023-05-19T14:26:05.684Z,20.05
2023-05-19T14:28:32.169Z,19.14
2023-05-19T14:30:58.668Z,18.60
2023-05-19T14:33:26.519Z,18.48
2023-05-19T14:35:53.261Z,18.09
2023-05-19T14:38:19.660Z,18.33
2023-05-19T14:40:46.151Z,18.24
2023-05-19T14:43:12.581Z,18.38
2023-05-19T14:45:39.023Z,18.56
2023-05-19T14:48:05.626Z,19.07
2023-05-19T14:50:33.739Z,19.13
2023-05-19T14:53:00.232Z,19.20
2023-05-19T14:55:26.645Z,19.00
2023-05-19T14:57:53.210Z,18.76
2023-05-19T15:00:19.859Z,18.94
2023-05-19T15:02:46.430Z,19.16
2023-05-19T15:05:12.905Z,19.04
2023-05-19T15:07:40.629Z,19.11
2023-05-19T15:10:08.013Z,18.68
2023-05-19T15:12:34.441Z,18.68
2023-05-19T15:15:00.949Z,18.67
2023-05-19T15:17:27.437Z,18.68
2023-05-19T15:19:53.880Z,18.51
2023-05-19T15:22:20.286Z,18.69
2023-05-19T15:24:48.143Z,18.71
2023-05-19T15:27:14.638Z,19.00
2023-05-19T15:29:41.648Z,19.03
2023-05-19T15:32:08.674Z,18.76
2023-05-19T15:34:35.154Z,18.33
2023-05-19T15:37:01.608Z,18.53
2023-05-19T15:39:29.721Z,18.38
2023-05-19T15:41:57.517Z,18.82
2023-05-19T15:44:23.941Z,18.58
2023-05-19T15:46:50.485Z,19.54
2023-05-19T15:49:17.026Z,19.53
2023-05-19T15:51:43.842Z,19.15
2023-05-19T15:54:10.314Z,18.77
2023-05-19T15:56:36.777Z,18.74
2023-05-19T15:59:04.492Z,18.74
2023-05-19T16:01:30.992Z,18.72
2023-05-19T16:03:57.659Z,18.72
2023-05-19T16:06:24.115Z,18.91
2023-05-19T16:08:50.517Z,18.97
2023-05-19T16:11:16.970Z,18.91
2023-05-19T16:13:43.389Z,19.07
2023-05-19T16:16:11.143Z,19.09
2023-05-19T16:18:37.900Z,19.02
2023-05-19T16:21:04.926Z,19.78
2023-05-19T16:23:31.523Z,20.11
2023-05-19T16:25:58.066Z,19.27
2023-05-19T16:28:24.858Z,18.89
2023-05-19T16:30:51.763Z,18.88
2023-05-19T16:33:19.538Z,18.86
2023-05-19T16:35:46.018Z,18.87
2023-05-19T16:38:12.521Z,18.91
2023-05-19T16:40:39.234Z,18.68
2023-05-19T16:43:05.691Z,18.38
2023-05-19T16:45:32.141Z,18.41
2023-05-19T16:47:58.807Z,18.12
2023-05-19T16:50:26.596Z,18.13
2023-05-19T16:52:53.158Z,18.28
2023-05-19T16:55:19.851Z,18.46
2023-05-19T16:57:46.498Z,18.35
2023-05-19T17:00:14.049Z,18.29
2023-05-19T17:02:40.566Z,18.33
2023-05-19T17:05:07.967Z,18.46
2023-05-19T17:07:35.899Z,18.35
2023-05-19T17:10:02.429Z,18.49
2023-05-19T17:12:28.909Z,18.29
2023-05-19T17:14:55.315Z,18.49
2023-05-19T17:17:21.753Z,18.31
2023-05-19T17:19:48.217Z,18.77
2023-05-19T17:22:14.661Z,18.41
2023-05-19T17:24:42.754Z,18.64
2023-05-19T17:27:09.188Z,18.29
2023-05-19T17:29:36.874Z,19.15
2023-05-19T17:32:03.996Z,18.61
2023-05-19T17:34:30.518Z,18.56
2023-05-19T17:36:56.930Z,18.49
2023-05-19T17:39:23.496Z,18.80
2023-05-19T17:41:51.234Z,18.61
2023-05-19T17:44:17.704Z,18.67
2023-05-19T17:46:44.238Z,18.31
2023-05-19T17:49:10.805Z,18.32
2023-05-19T17:51:37.901Z,18.40
2023-05-19T17:54:05.105Z,18.43
2023-05-19T17:56:33.527Z,18.50
2023-05-19T17:59:01.885Z,18.23
2023-05-19T18:01:28.859Z,18.33
2023-05-19T18:03:55.948Z,18.32
2023-05-19T18:06:25.201Z,18.11
2023-05-19T18:08:54.891Z,18.86
2023-05-19T18:11:21.999Z,18.66
2023-05-19T18:13:48.445Z,18.61
2023-05-19T18:16:16.307Z,18.57
2023-05-19T18:18:42.800Z,18.57
2023-05-19T18:21:09.280Z,18.39
2023-05-19T18:23:35.750Z,18.31
2023-05-19T18:26:02.162Z,18.13
2023-05-19T18:28:28.731Z,18.02
2023-05-19T18:30:59.219Z,18.04
2023-05-19T18:33:28.584Z,18.50
2023-05-19T18:35:56.544Z,17.97
2023-05-19T18:38:23.070Z,18.07
2023-05-19T18:40:49.752Z,18.10
2023-05-19T18:43:16.207Z,18.19
2023-05-19T18:45:42.734Z,18.06
2023-05-19T18:48:09.305Z,18.19
2023-05-19T18:50:37.119Z,18.04
2023-05-19T18:53:03.680Z,18.35
2023-05-19T18:55:30.202Z,18.11
2023-05-19T18:57:56.646Z,17.98
2023-05-19T19:00:23.819Z,17.91
2023-05-19T19:02:50.286Z,18.07
2023-05-19T19:05:16.746Z,18.00
2023-05-19T19:07:44.682Z,17.68
2023-05-19T19:10:11.684Z,17.88
2023-05-19T19:12:38.142Z,17.58
2023-05-19T19:15:05.825Z,17.55
2023-05-19T19:17:32.292Z,17.78
2023-05-19T19:19:58.760Z,17.56
2023-05-19T19:22:25.315Z,17.91
2023-05-19T19:24:53.275Z,17.80
2023-05-19T19:27:19.691Z,17.78
2023-05-19T19:29:46.181Z,17.64
2023-05-19T19:32:12.592Z,17.53
2023-05-19T19:34:38.979Z,17.59
2023-05-19T19:37:05.431Z,17.35
2023-05-19T19:39:31.836Z,17.49
2023-05-19T19:41:59.707Z,17.29
2023-05-19T19:44:26.225Z,17.13
2023-05-19T19:46:52.701Z,17.45
2023-05-19T19:49:19.168Z,17.05
2023-05-19T19:51:45.655Z,16.96
2023-05-19T19:54:12.072Z,17.17
2023-05-19T19:56:38.520Z,16.95
2023-05-19T19:59:06.302Z,17.23
2023-05-19T20:01:32.717Z,17.00
2023-05-19T20:03:59.278Z,17.17
2023-05-19T20:06:25.997Z,17.01
2023-05-19T20:08:52.442Z,17.14
2023-05-19T20:11:18.973Z,16.89
2023-05-19T20:13:45.453Z,16.93
2023-05-19T20:16:13.228Z,16.58
2023-05-19T20:18:39.761Z,16.63
2023-05-19T20:21:06.278Z,16.33
2023-05-19T20:23:32.783Z,16.39
2023-05-19T20:26:11.058Z,16.42
2023-05-19T20:28:38.740Z,16.14
2023-05-19T20:31:05.815Z,16.35
2023-05-19T20:33:33.625Z,16.37
2023-05-19T20:36:00.263Z,16.58
2023-05-19T20:38:27.112Z,16.81
2023-05-19T20:40:53.760Z,16.86
2023-05-19T20:43:20.268Z,16.75
2023-05-19T20:45:46.725Z,16.56
2023-05-19T20:48:13.286Z,16.64
2023-05-19T20:50:41.156Z,16.08
2023-05-19T20:53:07.845Z,16.55
2023-05-19T20:55:34.650Z,16.24
2023-05-19T20:58:01.320Z,16.10
2023-05-19T21:00:30.595Z,16.08
2023-05-19T21:02:57.310Z,16.25
2023-05-19T21:05:24.017Z,16.20
2023-05-19T21:07:51.972Z,15.89
2023-05-19T21:10:18.859Z,15.87
2023-05-19T21:12:45.463Z,16.30
2023-05-19T21:15:12.403Z,15.87
2023-05-19T21:17:38.893Z,16.10
2023-05-19T21:20:06.522Z,15.79
2023-05-19T21:22:33.037Z,15.73
2023-05-19T21:25:00.853Z,15.86
2023-05-19T21:27:27.456Z,15.68
2023-05-19T21:29:54.053Z,15.92
2023-05-19T21:32:21.235Z,16.37
2023-05-19T21:34:47.689Z,16.25
2023-05-19T21:37:14.213Z,15.79
2023-05-19T21:39:40.712Z,15.38
2023-05-19T21:42:08.564Z,15.71
2023-05-19T21:44:34.981Z,15.92
2023-05-19T21:47:01.474Z,15.68
2023-05-19T21:49:27.923Z,15.65
2023-05-19T21:51:54.399Z,15.53
2023-05-19T21:54:20.810Z,15.40
2023-05-19T21:56:47.228Z,15.58
2023-05-19T21:59:14.980Z,15.51
2023-05-19T22:01:41.470Z,15.28
2023-05-19T22:04:08.033Z,15.41
2023-05-19T22:06:34.600Z,15.37
2023-05-19T22:09:01.102Z,15.14
2023-05-19T22:11:27.761Z,15.32
2023-05-19T22:13:54.258Z,14.90
2023-05-19T22:16:22.166Z,14.73
2023-05-19T22:18:48.685Z,15.11
2023-05-19T22:21:15.195Z,15.02
2023-05-19T22:23:41.677Z,14.62
2023-05-19T22:26:08.190Z,14.99
2023-05-19T22:28:34.703Z,14.77
2023-05-19T22:31:01.136Z,14.83
2023-05-19T22:33:29.020Z,15.19
2023-05-19T22:35:55.487Z,14.58
2023-05-19T22:38:21.969Z,14.80
2023-05-19T22:40:51.344Z,14.93
2023-05-19T22:43:17.793Z,15.07
2023-05-19T22:45:44.383Z,14.92
2023-05-19T22:48:10.933Z,14.60
2023-05-19T22:50:38.726Z,14.66
2023-05-19T22:53:05.141Z,14.56
2023-05-19T22:55:31.758Z,15.20
2023-05-19T22:57:58.394Z,14.68
2023-05-19T23:00:25.565Z,15.14
2023-05-19T23:02:51.977Z,14.31
2023-05-19T23:05:18.599Z,14.26
2023-05-19T23:07:46.311Z,13.87
2023-05-19T23:10:12.945Z,14.32
2023-05-19T23:12:39.350Z,14.47
2023-05-19T23:15:07.186Z,14.01
2023-05-19T23:17:33.708Z,14.30
2023-05-19T23:20:00.156Z,14.31
2023-05-19T23:22:26.616Z,13.88
2023-05-19T23:24:54.396Z,13.95
2023-05-19T23:27:20.794Z,14.20
2023-05-19T23:29:47.994Z,13.92
2023-05-19T23:32:14.494Z,13.76
2023-05-19T23:34:40.920Z,14.44
2023-05-19T23:37:07.305Z,13.99
2023-05-19T23:39:33.740Z,13.95
2023-05-19T23:42:01.515Z,14.12
2023-05-19T23:44:27.913Z,13.72
2023-05-19T23:46:54.395Z,14.07
2023-05-19T23:49:20.822Z,14.05
2023-05-19T23:51:47.275Z,14.12
2023-05-19T23:54:13.831Z,13.98
2023-05-19T23:56:40.217Z,13.55
2023-05-19T23:59:07.961Z,13.74
